createdAt,value
2022-10-06T00:00:40.902Z,87.00
2022-10-06T00:03:07.165Z,83.38
2022-10-06T00:05:33.428Z,87.57
2022-10-06T00:07:59.684Z,84.32
2022-10-06T00:10:25.970Z,81.32
2022-10-06T00:12:52.259Z,78.93
2022-10-06T00:15:18.530Z,75.30
2022-10-06T00:17:44.789Z,70.82
2022-10-06T00:20:11.051Z,68.60
2022-10-06T00:22:37.322Z,73.10
2022-10-06T00:25:03.566Z,74.38
2022-10-06T00:27:29.823Z,79.85
2022-10-06T00:29:56.066Z,79.00
2022-10-06T00:32:22.313Z,82.03
2022-10-06T00:34:48.572Z,86.53
2022-10-06T00:37:14.818Z,81.07
2022-10-06T00:39:41.608Z,80.50
2022-10-06T00:42:07.864Z,88.25
2022-10-06T00:44:34.140Z,85.40
2022-10-06T00:47:00.396Z,93.10
2022-10-06T00:49:26.669Z,97.05
2022-10-06T00:51:52.955Z,86.35
2022-10-06T00:54:19.219Z,76.38
2022-10-06T00:56:45.515Z,93.60
2022-10-06T00:59:11.783Z,126.43
2022-10-06T01:01:38.117Z,180.82
2022-10-06T01:04:04.480Z,121.25
2022-10-06T01:06:30.830Z,117.43
2022-10-06T01:08:57.100Z,228.73
2022-10-06T01:11:23.354Z,219.30
2022-10-06T01:13:49.684Z,71.63
2022-10-06T01:16:15.979Z,74.53
2022-10-06T01:18:42.754Z,98.65
2022-10-06T01:21:09.013Z,115.72
2022-10-06T01:23:35.285Z,59.58
2022-10-06T01:26:01.540Z,61.42
2022-10-06T01:28:28.345Z,57.03
2022-10-06T01:30:54.983Z,60.57
2022-10-06T01:33:21.306Z,67.05
2022-10-06T01:35:47.558Z,67.35
2022-10-06T01:38:13.816Z,63.97
2022-10-06T01:40:40.063Z,66.57
2022-10-06T01:43:06.331Z,69.68
2022-10-06T01:45:32.576Z,91.00
2022-10-06T01:47:58.994Z,137.40
2022-10-06T01:50:25.324Z,108.82
2022-10-06T01:52:51.582Z,62.03
2022-10-06T01:55:17.839Z,61.97
2022-10-06T01:57:44.110Z,56.78
2022-10-06T02:00:10.374Z,121.10
2022-10-06T02:02:36.622Z,191.98
2022-10-06T02:05:02.887Z,172.20
2022-10-06T02:07:29.202Z,67.30
2022-10-06T02:09:55.479Z,65.32
2022-10-06T02:12:21.764Z,72.15
2022-10-06T02:14:48.023Z,69.35
2022-10-06T02:17:14.331Z,138.35
2022-10-06T02:19:40.586Z,80.78
2022-10-06T02:22:06.834Z,72.35
2022-10-06T02:24:33.416Z,83.97
2022-10-06T02:27:00.438Z,81.82
2022-10-06T02:29:26.691Z,78.38
2022-10-06T02:31:52.956Z,56.33
2022-10-06T02:34:19.199Z,52.00
2022-10-06T02:36:45.452Z,54.83
2022-10-06T02:39:11.743Z,108.07
2022-10-06T02:41:37.989Z,62.30
2022-10-06T02:44:04.236Z,73.65
2022-10-06T02:46:31.400Z,99.68
2022-10-06T02:48:57.718Z,105.85
2022-10-06T02:51:23.974Z,93.00
2022-10-06T02:53:50.403Z,99.50
2022-10-06T02:56:16.800Z,86.68
2022-10-06T02:58:43.184Z,110.60
2022-10-06T03:01:09.431Z,75.78
2022-10-06T03:03:35.720Z,83.72
2022-10-06T03:06:02.016Z,75.68
2022-10-06T03:08:28.561Z,68.53
2022-10-06T03:10:55.032Z,64.95
2022-10-06T03:13:21.424Z,56.53
2022-10-06T03:15:47.719Z,62.70
2022-10-06T03:18:14.008Z,77.43
2022-10-06T03:20:40.264Z,66.18
2022-10-06T03:23:09.222Z,61.88
2022-10-06T03:25:39.032Z,88.78
2022-10-06T03:28:05.326Z,113.03
2022-10-06T03:30:31.612Z,108.68
2022-10-06T03:32:59.776Z,104.85
2022-10-06T03:35:26.040Z,109.10
2022-10-06T03:37:52.309Z,137.20
2022-10-06T03:40:19.267Z,167.88
2022-10-06T03:42:45.519Z,179.40
2022-10-06T03:45:11.771Z,171.25
2022-10-06T03:47:38.045Z,201.82
2022-10-06T03:50:04.298Z,206.70
2022-10-06T03:52:30.552Z,193.70
2022-10-06T03:54:56.806Z,187.63
2022-10-06T03:57:23.106Z,206.95
2022-10-06T03:59:49.368Z,185.98
2022-10-06T04:02:15.742Z,154.43
2022-10-06T04:04:42.015Z,142.27
2022-10-06T04:07:08.868Z,136.60
2022-10-06T04:09:36.571Z,129.27
2022-10-06T04:12:02.875Z,126.95
2022-10-06T04:14:29.201Z,131.02
2022-10-06T04:16:57.053Z,128.20
2022-10-06T04:19:23.310Z,123.53
2022-10-06T04:21:49.609Z,116.32
2022-10-06T04:24:18.297Z,119.55
2022-10-06T04:26:48.838Z,122.75
2022-10-06T04:29:15.197Z,120.95
2022-10-06T04:31:42.393Z,111.05
2022-10-06T04:34:08.969Z,114.28
2022-10-06T04:36:35.228Z,115.55
2022-10-06T04:39:02.657Z,120.22
2022-10-06T04:41:28.964Z,118.72
2022-10-06T04:43:55.256Z,115.25
2022-10-06T04:46:42.066Z,122.30
2022-10-06T04:49:07.767Z,121.28
2022-10-06T04:51:34.066Z,116.88
2022-10-06T04:54:01.106Z,120.40
2022-10-06T04:56:27.283Z,118.43
2022-10-06T04:58:53.557Z,115.30
2022-10-06T05:01:19.897Z,117.70
2022-10-06T05:03:46.197Z,112.88
2022-10-06T05:06:12.467Z,117.00
2022-10-06T05:08:38.714Z,119.70
2022-10-06T05:11:04.992Z,103.50
2022-10-06T05:13:31.581Z,117.40
2022-10-06T05:15:58.011Z,135.57
2022-10-06T05:18:24.388Z,140.32
2022-10-06T05:20:50.699Z,115.80
2022-10-06T05:23:18.702Z,101.25
2022-10-06T05:28:11.297Z,73.78
2022-10-06T05:30:37.617Z,82.00
2022-10-06T05:33:03.899Z,96.82
2022-10-06T05:35:30.156Z,120.53
2022-10-06T05:37:56.415Z,152.35
2022-10-06T05:40:23.075Z,192.48
2022-10-06T05:42:49.351Z,212.88
2022-10-06T05:45:15.632Z,228.05
2022-10-06T05:47:42.155Z,225.75
2022-10-06T05:50:08.417Z,226.68
2022-10-06T05:52:34.680Z,221.60
2022-10-06T05:55:00.927Z,217.35
2022-10-06T05:57:27.201Z,221.55
2022-10-06T05:59:53.488Z,240.82
2022-10-06T06:02:19.844Z,230.07
2022-10-06T06:04:46.143Z,266.23
2022-10-06T06:07:12.462Z,230.95
2022-10-06T06:09:38.720Z,118.57
2022-10-06T06:12:05.241Z,105.65
2022-10-06T06:14:50.329Z,110.00
2022-10-06T06:17:16.603Z,130.25
2022-10-06T06:19:42.855Z,128.38
2022-10-06T06:22:09.145Z,117.40
2022-10-06T06:24:35.391Z,159.60
2022-10-06T06:27:01.655Z,115.55
2022-10-06T06:29:27.912Z,120.80
2022-10-06T06:31:54.186Z,137.35
2022-10-06T06:34:20.504Z,100.90
2022-10-06T06:36:53.401Z,153.57
2022-10-06T06:39:21.102Z,103.20
2022-10-06T06:41:47.396Z,68.35
2022-10-06T06:44:13.818Z,96.45
2022-10-06T06:46:40.159Z,88.05
2022-10-06T06:49:06.523Z,90.35
2022-10-06T06:51:34.456Z,103.13
2022-10-06T06:54:02.411Z,98.70
2022-10-06T06:56:28.705Z,71.15
2022-10-06T06:58:54.950Z,67.60
2022-10-06T07:01:21.228Z,87.60
2022-10-06T07:04:03.381Z,62.58
2022-10-06T07:06:29.707Z,81.22
2022-10-06T07:08:56.006Z,85.10
2022-10-06T07:11:22.298Z,62.47
2022-10-06T07:13:48.547Z,67.95
2022-10-06T07:16:33.660Z,103.68
2022-10-06T07:19:23.833Z,58.53
2022-10-06T07:22:09.850Z,89.55
2022-10-06T07:24:54.686Z,75.32
2022-10-06T07:27:20.960Z,76.78
2022-10-06T07:29:47.214Z,86.10
2022-10-06T07:32:13.484Z,76.20
2022-10-06T07:34:40.249Z,88.70
2022-10-06T07:37:06.695Z,91.28
2022-10-06T07:39:33.041Z,91.15
2022-10-06T07:41:59.303Z,79.60
2022-10-06T07:44:25.567Z,83.28
2022-10-06T07:46:52.258Z,72.15
2022-10-06T07:49:18.520Z,73.13
2022-10-06T07:51:44.798Z,74.25
2022-10-06T07:54:11.103Z,82.53
2022-10-06T07:56:37.346Z,76.90
2022-10-06T07:59:03.914Z,76.60
2022-10-06T08:01:30.890Z,74.68
2022-10-06T08:03:57.194Z,77.88
2022-10-06T08:06:24.427Z,76.70
2022-10-06T08:08:53.141Z,80.10
2022-10-06T08:11:19.895Z,81.40
2022-10-06T08:13:48.149Z,79.30
2022-10-06T08:16:14.659Z,82.10
2022-10-06T08:18:46.364Z,91.55
2022-10-06T08:21:13.753Z,84.50
2022-10-06T08:23:40.455Z,89.00
2022-10-06T08:26:06.709Z,80.00
2022-10-06T08:28:33.000Z,91.70
2022-10-06T08:30:59.348Z,98.55
2022-10-06T08:33:26.896Z,86.55
2022-10-06T08:35:53.174Z,77.18
2022-10-06T08:38:19.882Z,74.18
2022-10-06T08:40:46.131Z,73.90
2022-10-06T08:43:13.696Z,74.47
2022-10-06T08:45:40.076Z,72.35
2022-10-06T08:48:07.647Z,73.68
2022-10-06T08:50:35.092Z,81.30
2022-10-06T08:53:01.335Z,75.43
2022-10-06T08:55:27.625Z,74.05
2022-10-06T08:57:53.871Z,72.70
2022-10-06T09:00:22.182Z,84.82
2022-10-06T09:02:48.820Z,101.63
2022-10-06T09:05:19.188Z,86.80
2022-10-06T09:07:45.906Z,75.22
2022-10-06T09:10:12.208Z,73.18
2022-10-06T09:12:38.468Z,71.72
2022-10-06T09:15:06.262Z,86.70
2022-10-06T09:17:32.531Z,84.78
2022-10-06T09:19:58.936Z,81.72
2022-10-06T09:22:25.232Z,80.47
2022-10-06T09:24:51.677Z,95.20
2022-10-06T09:27:18.431Z,95.72
2022-10-06T09:29:44.679Z,173.90
2022-10-06T09:32:10.953Z,77.20
2022-10-06T09:34:37.450Z,80.90
2022-10-06T09:37:03.770Z,63.47
2022-10-06T09:39:32.992Z,179.70
2022-10-06T09:41:59.245Z,72.82
2022-10-06T09:44:25.578Z,76.18
2022-10-06T09:46:52.483Z,76.53
2022-10-06T09:49:18.827Z,63.03
2022-10-06T09:51:45.082Z,107.18
2022-10-06T09:54:11.390Z,62.85
2022-10-06T09:56:37.810Z,108.82
2022-10-06T09:59:04.111Z,161.40
2022-10-06T10:01:30.698Z,93.72
2022-10-06T10:04:20.567Z,84.85
2022-10-06T10:06:46.890Z,104.68
2022-10-06T10:09:15.579Z,66.10
2022-10-06T10:12:02.840Z,114.47
2022-10-06T10:14:29.098Z,127.38
2022-10-06T10:16:55.351Z,94.18
2022-10-06T10:19:21.610Z,100.22
2022-10-06T10:21:47.889Z,165.55
2022-10-06T10:24:14.867Z,102.47
2022-10-06T10:26:41.064Z,219.07
2022-10-06T10:29:07.348Z,86.15
2022-10-06T10:31:33.703Z,194.32
2022-10-06T10:34:12.663Z,86.30
2022-10-06T10:36:48.246Z,95.78
2022-10-06T10:39:14.531Z,215.07
2022-10-06T10:41:40.796Z,187.93
2022-10-06T10:44:07.050Z,150.52
2022-10-06T10:46:33.445Z,170.65
2022-10-06T10:48:59.797Z,153.75
2022-10-06T10:51:26.064Z,230.98
2022-10-06T10:53:52.341Z,239.98
2022-10-06T10:56:19.404Z,175.70
2022-10-06T10:58:45.627Z,213.47
2022-10-06T11:01:11.960Z,111.57
2022-10-06T11:03:38.266Z,113.93
2022-10-06T11:06:04.605Z,206.57
2022-10-06T11:08:30.855Z,191.60
2022-10-06T11:10:57.109Z,121.93
2022-10-06T11:13:23.684Z,93.72
2022-10-06T11:15:49.933Z,141.02
2022-10-06T11:18:19.471Z,164.10
2022-10-06T11:20:47.710Z,192.82
2022-10-06T11:23:13.977Z,113.20
2022-10-06T11:25:40.236Z,95.22
2022-10-06T11:28:06.543Z,141.48
2022-10-06T11:30:33.263Z,168.70
2022-10-06T11:33:01.449Z,145.48
2022-10-06T11:35:27.927Z,122.38
2022-10-06T11:37:54.219Z,103.55
2022-10-06T11:40:20.661Z,138.55
2022-10-06T11:42:46.956Z,118.13
2022-10-06T11:45:16.202Z,111.50
2022-10-06T11:47:42.488Z,137.48
2022-10-06T11:50:08.783Z,137.43
2022-10-06T11:52:35.052Z,114.15
2022-10-06T11:55:01.641Z,69.93
2022-10-06T11:57:31.162Z,104.30
2022-10-06T11:59:57.611Z,137.70
2022-10-06T12:02:24.003Z,127.05
2022-10-06T12:04:50.296Z,129.02
2022-10-06T12:07:16.576Z,120.95
2022-10-06T12:09:44.728Z,146.82
2022-10-06T12:12:11.443Z,149.60
2022-10-06T12:16:35.309Z,128.93
2022-10-06T12:17:23.955Z,145.77
2022-10-06T12:19:50.242Z,99.38
2022-10-06T12:22:16.995Z,180.73
2022-10-06T12:24:43.303Z,361.48
2022-10-06T12:27:09.573Z,114.10
2022-10-06T12:29:35.869Z,91.57
2022-10-06T12:32:02.142Z,155.45
2022-10-06T12:34:28.414Z,170.68
2022-10-06T12:36:54.671Z,148.60
2022-10-06T12:39:20.921Z,91.45
2022-10-06T12:41:47.847Z,86.10
2022-10-06T12:44:14.331Z,107.97
2022-10-06T12:46:40.642Z,146.15
2022-10-06T12:49:06.975Z,440.00
2022-10-06T12:51:34.868Z,999.90
2022-10-06T12:54:01.449Z,999.90
2022-10-06T12:56:28.233Z,999.90
2022-10-06T12:58:54.617Z,369.27
2022-10-06T13:01:24.848Z,408.10
2022-10-06T13:03:51.182Z,516.55
2022-10-06T13:06:17.440Z,523.50
2022-10-06T13:08:43.727Z,999.90
2022-10-06T13:11:10.150Z,999.90
2022-10-06T13:13:36.400Z,524.38
2022-10-06T13:16:02.777Z,999.90
2022-10-06T13:18:29.640Z,999.90
2022-10-06T13:20:55.908Z,999.90
2022-10-06T13:23:22.323Z,999.90
2022-10-06T13:25:48.586Z,999.90
2022-10-06T13:28:14.900Z,999.90
2022-10-06T13:30:41.421Z,999.90
2022-10-06T13:33:07.822Z,999.90
2022-10-06T13:35:34.071Z,999.90
2022-10-06T13:38:02.649Z,999.90
2022-10-06T13:40:44.127Z,999.90
2022-10-06T13:43:11.598Z,999.90
2022-10-06T13:45:37.866Z,999.90
2022-10-06T13:48:04.111Z,999.90
2022-10-06T13:50:30.381Z,999.90
2022-10-06T13:52:56.665Z,999.90
2022-10-06T13:55:22.942Z,999.90
2022-10-06T13:57:49.222Z,999.90
2022-10-06T14:00:17.640Z,999.90
2022-10-06T14:02:44.912Z,999.90
2022-10-06T14:05:11.226Z,999.90
2022-10-06T14:07:37.484Z,999.90
2022-10-06T14:10:03.739Z,999.90
2022-10-06T14:12:30.004Z,999.90
2022-10-06T14:14:56.567Z,999.90
2022-10-06T14:17:22.971Z,999.90
2022-10-06T14:19:49.244Z,999.90
2022-10-06T14:22:15.498Z,999.90
2022-10-06T14:24:41.755Z,999.90
2022-10-06T14:27:08.367Z,999.90
2022-10-06T14:29:36.186Z,999.90
2022-10-06T14:32:02.451Z,999.90
2022-10-06T14:34:29.154Z,999.90
2022-10-06T14:36:57.160Z,999.90
2022-10-06T14:41:50.100Z,346.20
2022-10-06T14:44:16.497Z,999.90
2022-10-06T14:46:42.964Z,999.90
2022-10-06T14:49:09.499Z,999.90
2022-10-06T14:51:37.045Z,999.90
2022-10-06T14:54:03.662Z,999.90
2022-10-06T14:56:31.423Z,999.90
2022-10-06T14:58:59.918Z,999.90
2022-10-06T15:01:26.233Z,999.90
2022-10-06T15:03:52.631Z,999.90
2022-10-06T15:06:37.771Z,999.90
2022-10-06T15:09:04.040Z,999.90
2022-10-06T15:11:30.300Z,999.90
2022-10-06T15:13:57.203Z,999.90
2022-10-06T15:16:23.465Z,999.90
2022-10-06T15:18:49.731Z,999.90
2022-10-06T15:21:16.030Z,999.90
2022-10-06T15:23:42.288Z,999.90
2022-10-06T15:26:27.318Z,999.90
2022-10-06T15:29:03.142Z,999.90
2022-10-06T15:31:29.673Z,282.70
2022-10-06T15:33:56.032Z,351.20
2022-10-06T15:36:24.611Z,398.23
2022-10-06T15:38:51.104Z,372.40
2022-10-06T15:41:17.384Z,309.33
2022-10-06T15:43:55.760Z,266.98
2022-10-06T15:46:22.056Z,113.15
2022-10-06T15:48:48.527Z,106.45
2022-10-06T15:51:14.855Z,134.77
2022-10-06T15:53:41.103Z,133.30
2022-10-06T15:56:07.364Z,134.70
2022-10-06T15:58:33.630Z,126.22
2022-10-06T16:00:59.903Z,208.38
2022-10-06T16:03:41.090Z,284.85
2022-10-06T16:06:09.048Z,172.63
2022-10-06T16:08:35.425Z,110.60
2022-10-06T16:11:01.782Z,74.80
2022-10-06T16:16:43.350Z,77.07
2022-10-06T16:19:10.522Z,75.75
2022-10-06T16:21:36.812Z,248.52
2022-10-06T16:24:03.110Z,269.67
2022-10-06T16:26:29.433Z,93.68
2022-10-06T16:28:55.700Z,104.82
2022-10-06T16:31:22.120Z,93.68
2022-10-06T16:33:49.008Z,170.10
2022-10-06T16:36:15.322Z,137.18
2022-10-06T16:38:41.632Z,69.30
2022-10-06T16:41:08.132Z,62.60
2022-10-06T16:43:34.383Z,60.35
2022-10-06T16:46:02.761Z,70.55
2022-10-06T16:48:29.087Z,74.45
2022-10-06T16:50:55.360Z,87.13
2022-10-06T16:53:22.378Z,99.78
2022-10-06T16:55:48.618Z,75.93
2022-10-06T16:58:14.882Z,70.82
2022-10-06T17:00:41.183Z,67.22
2022-10-06T17:03:07.517Z,83.03
2022-10-06T17:05:34.573Z,80.13
2022-10-06T17:08:00.788Z,79.03
2022-10-06T17:10:27.115Z,71.95
2022-10-06T17:12:53.460Z,126.95
2022-10-06T17:15:19.855Z,145.05
2022-10-06T17:17:46.127Z,87.65
2022-10-06T17:20:13.854Z,70.15
2022-10-06T17:22:40.424Z,87.93
2022-10-06T17:25:06.829Z,65.10
2022-10-06T17:27:35.159Z,82.25
2022-10-06T17:30:04.645Z,110.10
2022-10-06T17:32:30.896Z,60.15
2022-10-06T17:34:57.155Z,53.97
2022-10-06T17:37:23.419Z,51.65
2022-10-06T17:39:49.698Z,53.65
2022-10-06T17:42:16.058Z,85.50
2022-10-06T17:44:42.334Z,82.88
2022-10-06T17:47:12.593Z,54.20
2022-10-06T17:49:40.030Z,48.03
2022-10-06T17:52:06.288Z,58.92
2022-10-06T17:54:34.278Z,70.22
2022-10-06T17:59:28.734Z,52.55
2022-10-06T18:01:56.098Z,51.65
2022-10-06T18:04:22.486Z,69.95
2022-10-06T18:06:48.735Z,71.97
2022-10-06T18:09:15.007Z,60.10
2022-10-06T18:11:48.269Z,57.90
2022-10-06T18:14:14.658Z,99.97
2022-10-06T18:16:41.034Z,131.63
2022-10-06T18:19:07.462Z,97.38
2022-10-06T18:21:37.287Z,66.70
2022-10-06T18:24:03.598Z,62.67
2022-10-06T18:26:29.855Z,68.63
2022-10-06T18:28:56.274Z,93.45
2022-10-06T18:31:22.596Z,88.68
2022-10-06T18:36:35.220Z,52.47
2022-10-06T18:39:01.526Z,53.70
2022-10-06T18:41:28.154Z,51.42
2022-10-06T18:43:54.455Z,53.22
2022-10-06T18:46:39.528Z,66.72
2022-10-06T18:49:05.970Z,63.50
2022-10-06T18:51:32.241Z,54.90
2022-10-06T18:53:58.813Z,50.90
2022-10-06T18:56:25.759Z,50.30
2022-10-06T18:58:52.006Z,52.00
2022-10-06T19:01:19.416Z,56.95
2022-10-06T19:03:45.840Z,67.88
2022-10-06T19:06:12.116Z,69.35
2022-10-06T19:08:38.481Z,60.40
2022-10-06T19:11:23.590Z,78.38
2022-10-06T19:13:51.819Z,80.03
2022-10-06T19:16:18.099Z,56.30
2022-10-06T19:18:44.425Z,70.50
2022-10-06T19:21:10.681Z,62.47
2022-10-06T19:23:36.938Z,52.00
2022-10-06T19:26:03.238Z,54.50
2022-10-06T19:28:30.216Z,61.88
2022-10-06T19:30:56.563Z,80.25
2022-10-06T19:33:22.876Z,80.82
2022-10-06T19:35:50.294Z,68.68
2022-10-06T19:38:16.548Z,60.05
2022-10-06T19:40:42.804Z,62.65
2022-10-06T19:43:09.068Z,61.03
2022-10-06T19:45:35.319Z,61.25
2022-10-06T19:48:01.564Z,60.03
2022-10-06T19:50:27.806Z,65.18
2022-10-06T19:52:54.058Z,56.17
2022-10-06T19:55:22.786Z,54.83
2022-10-06T19:57:50.616Z,66.25
2022-10-06T20:00:16.967Z,85.72
2022-10-06T20:02:44.138Z,96.82
2022-10-06T20:05:10.316Z,89.43
2022-10-06T20:07:36.579Z,77.78
2022-10-06T20:10:03.200Z,68.40
2022-10-06T20:12:29.472Z,69.20
2022-10-06T20:14:55.895Z,67.13
2022-10-06T20:17:22.169Z,65.00
2022-10-06T20:19:48.423Z,77.38
2022-10-06T20:22:14.735Z,80.90
2022-10-06T20:24:41.007Z,75.57
2022-10-06T20:27:07.268Z,73.93
2022-10-06T20:29:34.549Z,64.72
2022-10-06T20:32:00.878Z,68.03
2022-10-06T20:34:27.206Z,63.85
2022-10-06T20:36:56.129Z,63.33
2022-10-06T20:39:41.462Z,66.70
2022-10-06T20:42:12.233Z,90.47
2022-10-06T20:44:44.552Z,93.80
2022-10-06T20:47:10.814Z,77.57
2022-10-06T20:49:37.081Z,61.05
2022-10-06T20:52:04.370Z,60.53
2022-10-06T20:54:37.224Z,57.95
2022-10-06T20:57:03.813Z,85.80
2022-10-06T20:59:30.062Z,121.95
2022-10-06T21:01:59.913Z,87.30
2022-10-06T21:04:27.511Z,60.70
2022-10-06T21:06:53.882Z,74.05
2022-10-06T21:09:20.458Z,84.60
2022-10-06T21:11:46.832Z,91.93
2022-10-06T21:14:13.223Z,114.15
2022-10-06T21:16:39.608Z,82.72
2022-10-06T21:19:08.350Z,57.85
2022-10-06T21:21:34.715Z,63.10
2022-10-06T21:24:01.090Z,54.28
2022-10-06T21:26:27.846Z,59.50
2022-10-06T21:28:54.212Z,69.40
2022-10-06T21:31:20.701Z,76.57
2022-10-06T21:33:47.105Z,70.10
2022-10-06T21:36:17.054Z,62.97
2022-10-06T21:38:43.415Z,58.20
2022-10-06T21:41:29.441Z,52.35
2022-10-06T21:43:55.815Z,62.55
2022-10-06T21:46:28.390Z,88.53
2022-10-06T21:48:55.328Z,98.22
2022-10-06T21:51:21.743Z,66.13
2022-10-06T21:53:48.107Z,52.83
2022-10-06T21:56:14.523Z,53.28
2022-10-06T21:58:40.891Z,56.25
2022-10-06T22:01:07.250Z,55.35
2022-10-06T22:03:33.618Z,50.08
2022-10-06T22:06:00.023Z,52.00
2022-10-06T22:08:26.396Z,55.40
2022-10-06T22:10:52.799Z,54.95
2022-10-06T22:13:19.166Z,50.50
2022-10-06T22:15:45.580Z,51.60
2022-10-06T22:18:12.031Z,54.42
2022-10-06T22:20:38.440Z,51.40
2022-10-06T22:23:05.200Z,54.17
2022-10-06T22:25:31.619Z,61.78
2022-10-06T22:27:58.073Z,60.65
2022-10-06T22:30:24.508Z,58.58
2022-10-06T22:32:50.919Z,55.58
2022-10-06T22:35:17.284Z,56.65
2022-10-06T22:37:43.813Z,53.78
2022-10-06T22:40:10.297Z,51.50
2022-10-06T22:42:36.658Z,52.30
2022-10-06T22:45:03.074Z,53.03
2022-10-06T22:47:29.464Z,54.70
2022-10-06T22:49:55.833Z,54.83
2022-10-06T22:52:22.264Z,55.20
2022-10-06T22:54:48.637Z,52.13
2022-10-06T22:57:15.007Z,52.67
2022-10-06T22:59:41.387Z,54.63
2022-10-06T23:02:07.759Z,49.65
2022-10-06T23:04:34.144Z,50.35
2022-10-06T23:07:00.507Z,53.38
2022-10-06T23:09:26.899Z,47.70
2022-10-06T23:11:53.260Z,43.60
2022-10-06T23:14:19.623Z,45.92
2022-10-06T23:16:46.095Z,46.83
2022-10-06T23:19:12.518Z,42.35
2022-10-06T23:21:40.291Z,41.33
2022-10-06T23:24:07.218Z,44.20
2022-10-06T23:26:33.668Z,44.95
2022-10-06T23:29:00.065Z,46.10
2022-10-06T23:31:26.524Z,46.33
2022-10-06T23:33:52.927Z,41.90
2022-10-06T23:36:19.348Z,42.40
2022-10-06T23:38:45.788Z,43.53
2022-10-06T23:41:12.170Z,47.10
2022-10-06T23:43:38.552Z,49.70
2022-10-06T23:46:04.996Z,47.40
2022-10-06T23:48:31.449Z,51.70
2022-10-06T23:50:58.051Z,55.25
2022-10-06T23:53:24.491Z,54.45
2022-10-06T23:55:50.871Z,58.60
2022-10-06T23:58:17.245Z,63.08
